createdAt,value
2022-09-06T00:01:32.151Z,6.20
2022-09-06T00:03:58.742Z,7.43
2022-09-06T00:06:25.496Z,6.80
2022-09-06T00:08:52.141Z,6.43
2022-09-06T00:11:19.045Z,6.55
2022-09-06T00:13:46.747Z,6.15
2022-09-06T00:18:46.814Z,6.38
2022-09-06T00:21:25.623Z,6.70
2022-09-06T00:23:52.592Z,6.45
2022-09-06T00:26:21.357Z,7.40
2022-09-06T00:28:48.177Z,6.55
2022-09-06T00:31:20.671Z,6.50
2022-09-06T00:33:47.872Z,5.72
2022-09-06T00:36:15.178Z,5.82
2022-09-06T00:38:42.308Z,5.28
2022-09-06T00:41:11.071Z,4.72
2022-09-06T00:43:37.856Z,4.53
2022-09-06T00:46:06.269Z,4.93
2022-09-06T00:48:33.461Z,6.13
2022-09-06T00:51:03.859Z,6.50
2022-09-06T00:53:31.891Z,4.32
2022-09-06T00:55:59.104Z,5.43
2022-09-06T00:58:29.259Z,5.05
2022-09-06T01:00:56.102Z,5.47
2022-09-06T01:03:25.106Z,4.43
2022-09-06T01:06:18.762Z,5.60
2022-09-06T01:08:51.269Z,5.95
2022-09-06T01:11:23.883Z,5.20
2022-09-06T01:13:56.423Z,4.60
2022-09-06T01:16:49.262Z,5.18
2022-09-06T01:19:59.435Z,5.55
2022-09-06T01:23:04.723Z,5.68
2022-09-06T01:26:02.748Z,5.20
2022-09-06T01:28:39.359Z,5.18
2022-09-06T01:31:20.131Z,5.25
2022-09-06T01:34:14.606Z,5.05
2022-09-06T01:37:08.911Z,4.78
2022-09-06T01:39:37.915Z,3.88
2022-09-06T01:42:21.192Z,4.90
2022-09-06T01:44:54.855Z,5.55
2022-09-06T01:47:36.904Z,4.60
2022-09-06T01:50:16.480Z,5.50
2022-09-06T01:53:00.306Z,4.88
2022-09-06T01:55:37.662Z,4.47
2022-09-06T01:58:41.771Z,4.57
2022-09-06T02:01:30.137Z,4.43
2022-09-06T02:04:13.998Z,4.70
2022-09-06T02:06:46.250Z,4.47
2022-09-06T02:09:25.112Z,4.68
2022-09-06T02:11:56.299Z,5.68
2022-09-06T02:14:36.070Z,6.10
2022-09-06T02:17:05.315Z,5.75
2022-09-06T02:19:39.509Z,5.63
2022-09-06T02:22:09.380Z,6.68
2022-09-06T02:24:40.814Z,5.65
2022-09-06T02:27:08.189Z,5.30
2022-09-06T02:29:35.597Z,5.30
2022-09-06T02:32:16.650Z,6.03
2022-09-06T02:34:46.103Z,5.45
2022-09-06T02:37:14.070Z,6.25
2022-09-06T02:39:40.789Z,6.82
2022-09-06T02:42:10.251Z,6.18
2022-09-06T02:44:36.774Z,6.53
2022-09-06T02:47:03.870Z,7.53
2022-09-06T02:49:31.096Z,6.45
2022-09-06T02:51:57.648Z,7.72
2022-09-06T02:54:24.777Z,6.18
2022-09-06T02:56:52.492Z,6.35
2022-09-06T02:59:19.141Z,7.50
2022-09-06T03:01:45.642Z,7.10
2022-09-06T03:04:12.454Z,7.28
2022-09-06T03:06:39.032Z,7.68
2022-09-06T03:09:05.450Z,7.25
2022-09-06T03:11:40.932Z,6.60
2022-09-06T03:14:49.391Z,7.88
2022-09-06T03:18:13.743Z,7.05
2022-09-06T03:21:34.184Z,8.00
2022-09-06T03:24:20.872Z,8.25
2022-09-06T03:26:50.442Z,7.43
2022-09-06T03:29:36.562Z,8.18
2022-09-06T03:32:42.926Z,7.55
2022-09-06T03:35:11.775Z,7.38
2022-09-06T03:37:54.199Z,8.05
2022-09-06T03:40:27.018Z,7.95
2022-09-06T03:42:54.827Z,8.93
2022-09-06T03:45:21.453Z,7.97
2022-09-06T03:47:48.044Z,7.85
2022-09-06T03:50:14.849Z,8.52
2022-09-06T03:52:41.344Z,8.35
2022-09-06T03:55:08.302Z,8.13
2022-09-06T03:57:34.801Z,7.32
2022-09-06T04:00:01.381Z,7.93
2022-09-06T04:02:28.031Z,7.70
2022-09-06T04:04:55.594Z,7.97
2022-09-06T04:07:23.076Z,8.25
2022-09-06T04:09:50.239Z,7.93
2022-09-06T04:12:16.753Z,7.65
2022-09-06T04:14:43.284Z,8.13
2022-09-06T04:17:10.349Z,8.55
2022-09-06T04:19:36.863Z,8.05
2022-09-06T04:22:03.507Z,7.25
2022-09-06T04:24:30.053Z,8.25
2022-09-06T04:26:56.570Z,8.40
2022-09-06T04:29:23.263Z,6.63
2022-09-06T04:31:50.088Z,6.55
2022-09-06T04:34:16.692Z,7.38
2022-09-06T04:36:48.071Z,7.40
2022-09-06T04:39:15.181Z,7.13
2022-09-06T04:41:42.610Z,9.00
2022-09-06T04:44:09.355Z,9.68
2022-09-06T04:46:36.054Z,9.75
2022-09-06T04:49:03.242Z,10.32
2022-09-06T04:51:29.772Z,10.30
2022-09-06T04:53:56.240Z,11.18
2022-09-06T04:56:24.630Z,10.13
2022-09-06T04:59:07.754Z,10.02
2022-09-06T05:07:21.556Z,10.70
2022-09-06T05:10:02.613Z,9.25
2022-09-06T05:12:31.755Z,10.65
2022-09-06T05:15:16.704Z,9.82
2022-09-06T05:20:14.991Z,8.93
2022-09-06T05:22:41.998Z,9.38
2022-09-06T05:25:09.766Z,9.32
2022-09-06T05:30:04.095Z,9.88
2022-09-06T05:32:30.724Z,9.27
2022-09-06T05:34:57.617Z,8.70
2022-09-06T05:37:24.346Z,8.43
2022-09-06T05:39:50.928Z,8.80
2022-09-06T05:42:19.378Z,7.72
2022-09-06T05:44:46.498Z,8.02
2022-09-06T05:47:13.530Z,7.63
2022-09-06T05:49:40.197Z,8.07
2022-09-06T05:52:06.846Z,7.38
2022-09-06T05:54:33.323Z,7.68
2022-09-06T05:56:59.845Z,8.68
2022-09-06T05:59:26.486Z,6.25
2022-09-06T06:01:53.775Z,7.10
2022-09-06T06:04:22.286Z,7.15
2022-09-06T06:06:52.242Z,7.47
2022-09-06T06:09:18.807Z,9.18
2022-09-06T06:11:45.389Z,8.95
2022-09-06T06:14:11.896Z,7.93
2022-09-06T06:16:38.572Z,9.18
2022-09-06T06:19:05.705Z,8.45
2022-09-06T06:21:33.543Z,9.43
2022-09-06T06:26:30.711Z,8.40
2022-09-06T06:28:58.942Z,9.77
2022-09-06T06:31:25.630Z,8.52
2022-09-06T06:33:52.196Z,9.63
2022-09-06T06:36:21.910Z,9.30
2022-09-06T06:38:49.901Z,10.98
2022-09-06T06:41:21.984Z,8.93
2022-09-06T06:43:50.851Z,9.82
2022-09-06T06:46:18.814Z,9.75
2022-09-06T06:48:46.169Z,9.68
2022-09-06T06:51:15.219Z,9.85
2022-09-06T06:53:41.656Z,8.90
2022-09-06T06:56:20.993Z,11.73
2022-09-06T06:58:52.266Z,9.93
2022-09-06T07:01:23.050Z,8.57
2022-09-06T07:03:52.742Z,9.27
2022-09-06T07:09:08.950Z,9.27
2022-09-06T07:11:35.512Z,8.93
2022-09-06T07:14:02.105Z,9.77
2022-09-06T07:16:32.364Z,9.45
2022-09-06T07:18:58.909Z,7.90
2022-09-06T07:21:42.197Z,8.45
2022-09-06T07:24:09.595Z,6.75
2022-09-06T07:29:06.083Z,7.25
2022-09-06T07:34:25.097Z,8.52
2022-09-06T07:36:55.684Z,7.55
2022-09-06T07:39:22.548Z,8.02
2022-09-06T07:41:48.996Z,7.82
2022-09-06T07:44:15.790Z,6.68
2022-09-06T07:46:42.771Z,5.93
2022-09-06T07:49:09.337Z,5.63
2022-09-06T07:51:35.829Z,5.65
2022-09-06T07:54:26.251Z,5.10
2022-09-06T07:56:49.378Z,6.22
2022-09-06T07:59:16.181Z,5.13
2022-09-06T08:01:43.080Z,5.82
2022-09-06T08:04:12.773Z,4.80
2022-09-06T08:09:37.795Z,4.45
2022-09-06T08:12:07.258Z,5.10
2022-09-06T08:14:35.116Z,4.95
2022-09-06T08:19:28.431Z,4.90
2022-09-06T08:21:55.600Z,5.43
2022-09-06T08:24:22.188Z,5.80
2022-09-06T08:26:51.033Z,5.72
2022-09-06T08:29:20.060Z,5.45
2022-09-06T08:31:47.128Z,5.70
2022-09-06T08:34:15.041Z,6.00
2022-09-06T08:36:42.431Z,5.75
2022-09-06T08:39:10.309Z,6.28
2022-09-06T08:41:55.437Z,7.00
2022-09-06T08:44:55.301Z,6.03
2022-09-06T08:47:25.329Z,7.03
2022-09-06T08:50:00.362Z,7.25
2022-09-06T08:52:32.696Z,7.85
2022-09-06T08:55:17.276Z,8.32
2022-09-06T08:58:17.230Z,6.97
2022-09-06T09:00:51.630Z,7.70
2022-09-06T09:03:31.189Z,6.55
2022-09-06T09:05:59.853Z,7.50
2022-09-06T09:08:46.386Z,5.97
2022-09-06T09:11:23.204Z,7.88
2022-09-06T09:14:01.685Z,6.35
2022-09-06T09:16:28.488Z,5.25
2022-09-06T09:18:59.110Z,7.22
2022-09-06T09:21:30.693Z,4.97
2022-09-06T09:24:01.969Z,5.47
2022-09-06T09:26:35.208Z,5.82
2022-09-06T09:29:14.618Z,4.93
2022-09-06T09:31:53.581Z,5.20
2022-09-06T09:34:38.784Z,5.50
2022-09-06T09:40:24.450Z,4.43
2022-09-06T09:42:52.596Z,4.78
2022-09-06T09:45:30.777Z,4.15
2022-09-06T09:47:57.411Z,4.70
2022-09-06T09:50:34.700Z,3.70
2022-09-06T09:53:16.163Z,3.50
2022-09-06T09:55:44.091Z,2.97
2022-09-06T09:58:27.114Z,3.75
2022-09-06T10:01:22.867Z,2.88
2022-09-06T10:09:36.639Z,2.85
2022-09-06T10:12:03.464Z,2.50
2022-09-06T10:14:33.724Z,2.25
2022-09-06T10:17:01.085Z,2.22
2022-09-06T10:19:42.660Z,2.13
2022-09-06T10:22:29.406Z,2.55
2022-09-06T10:25:08.140Z,2.28
2022-09-06T10:27:35.898Z,2.38
2022-09-06T10:30:08.424Z,2.45
2022-09-06T10:32:49.198Z,1.90
2022-09-06T10:35:21.353Z,2.63
2022-09-06T10:37:57.100Z,2.65
2022-09-06T10:40:31.945Z,4.20
2022-09-06T10:43:00.450Z,4.20
2022-09-06T10:45:46.716Z,5.18
2022-09-06T10:48:21.466Z,4.68
2022-09-06T10:51:09.112Z,4.38
2022-09-06T10:54:00.156Z,4.15
2022-09-06T10:56:45.389Z,4.65
2022-09-06T10:59:38.779Z,4.45
2022-09-06T11:02:06.090Z,3.92
2022-09-06T11:07:38.448Z,4.50
2022-09-06T11:10:22.009Z,5.00
2022-09-06T11:13:01.573Z,5.50
2022-09-06T11:15:32.943Z,5.72
2022-09-06T11:18:29.664Z,5.40
2022-09-06T11:21:34.028Z,3.45
2022-09-06T11:24:13.152Z,4.22
2022-09-06T11:26:45.672Z,4.70
2022-09-06T11:29:24.491Z,4.25
2022-09-06T11:34:53.748Z,5.25
2022-09-06T11:37:27.299Z,4.78
2022-09-06T11:42:55.003Z,5.18
2022-09-06T11:45:44.004Z,5.93
2022-09-06T11:48:26.614Z,4.47
2022-09-06T11:50:59.752Z,5.47
2022-09-06T11:53:32.523Z,7.28
2022-09-06T11:56:01.926Z,6.43
2022-09-06T11:58:40.268Z,6.47
2022-09-06T12:01:13.206Z,6.70
2022-09-06T12:06:35.453Z,6.70
2022-09-06T12:09:22.740Z,5.80
2022-09-06T12:11:53.456Z,4.45
2022-09-06T12:14:35.850Z,7.20
2022-09-06T12:17:04.745Z,6.88
2022-09-06T12:20:04.343Z,8.95
2022-09-06T12:22:33.799Z,6.88
2022-09-06T12:25:35.761Z,7.18
2022-09-06T12:28:05.290Z,8.73
2022-09-06T12:30:37.407Z,8.90
2022-09-06T12:33:13.801Z,8.15
2022-09-06T12:38:25.464Z,6.78
2022-09-06T12:40:58.113Z,6.15
2022-09-06T12:43:31.042Z,7.82
2022-09-06T12:45:59.509Z,6.43
2022-09-06T12:48:31.686Z,6.57
2022-09-06T12:51:05.221Z,6.75
2022-09-06T12:53:34.137Z,5.75
2022-09-06T12:56:09.318Z,6.05
2022-09-06T12:58:38.620Z,7.22
2022-09-06T13:01:28.888Z,5.95
2022-09-06T13:04:11.531Z,6.47
2022-09-06T13:06:42.603Z,7.13
2022-09-06T13:09:13.650Z,6.55
2022-09-06T13:11:45.512Z,5.35
2022-09-06T13:14:19.822Z,7.65
2022-09-06T13:16:50.441Z,5.25
2022-09-06T13:19:38.295Z,8.50
2022-09-06T13:22:08.145Z,7.40
2022-09-06T13:24:34.502Z,6.00
2022-09-06T13:27:01.410Z,5.82
2022-09-06T13:29:33.373Z,6.50
2022-09-06T13:32:02.225Z,5.68
2022-09-06T13:34:31.979Z,7.88
2022-09-06T13:37:05.334Z,6.70
2022-09-06T13:39:37.897Z,6.90
2022-09-06T13:42:05.927Z,6.40
2022-09-06T13:44:37.156Z,5.90
2022-09-06T13:47:04.716Z,6.57
2022-09-06T13:52:03.093Z,6.97
2022-09-06T13:54:30.915Z,5.70
2022-09-06T13:56:57.987Z,7.70
2022-09-06T13:59:25.179Z,7.00
2022-09-06T14:02:15.957Z,7.88
2022-09-06T14:04:43.111Z,6.30
2022-09-06T14:07:09.567Z,7.32
2022-09-06T14:09:37.434Z,6.28
2022-09-06T14:12:06.880Z,6.40
2022-09-06T14:14:34.217Z,6.55
2022-09-06T14:17:00.794Z,5.53
2022-09-06T14:19:27.612Z,6.63
2022-09-06T14:21:54.069Z,6.60
2022-09-06T14:24:20.813Z,5.75
2022-09-06T14:26:47.306Z,5.88
2022-09-06T14:29:13.913Z,6.28
2022-09-06T14:31:40.368Z,6.88
2022-09-06T14:34:06.867Z,6.07
2022-09-06T14:36:34.521Z,5.22
2022-09-06T14:39:01.983Z,4.38
2022-09-06T14:41:28.624Z,3.97
2022-09-06T14:43:57.417Z,3.95
2022-09-06T14:46:28.384Z,2.97
2022-09-06T14:49:04.493Z,3.25
2022-09-06T14:51:31.644Z,2.90
2022-09-06T14:54:03.060Z,3.38
2022-09-06T14:56:30.427Z,2.97
2022-09-06T14:58:57.858Z,2.72
2022-09-06T15:01:27.137Z,2.53
2022-09-06T15:03:57.391Z,3.10
2022-09-06T15:06:25.802Z,2.40
2022-09-06T15:08:57.054Z,1.95
2022-09-06T15:11:30.256Z,2.47
2022-09-06T15:13:57.792Z,1.75
2022-09-06T15:18:50.970Z,2.58
2022-09-06T15:21:17.914Z,2.30
2022-09-06T15:23:44.448Z,2.53
2022-09-06T15:26:12.147Z,2.97
2022-09-06T15:28:40.077Z,2.72
2022-09-06T15:31:09.405Z,2.97
2022-09-06T15:33:37.828Z,2.65
2022-09-06T15:36:06.444Z,2.28
2022-09-06T15:38:34.110Z,2.83
2022-09-06T15:41:16.098Z,3.35
2022-09-06T15:43:46.908Z,2.17
2022-09-06T15:46:40.032Z,3.00
2022-09-06T15:49:08.122Z,3.08
2022-09-06T15:51:36.477Z,2.75
2022-09-06T15:54:03.136Z,2.70
2022-09-06T15:56:29.745Z,2.67
2022-09-06T15:58:56.213Z,2.33
2022-09-06T16:01:25.218Z,2.50
2022-09-06T16:03:53.965Z,3.03
2022-09-06T16:08:56.522Z,2.55
2022-09-06T16:11:25.073Z,2.17
2022-09-06T16:13:51.617Z,2.78
2022-09-06T16:16:18.109Z,3.53
2022-09-06T16:18:47.892Z,2.80
2022-09-06T16:21:21.065Z,2.53
2022-09-06T16:23:52.279Z,3.00
2022-09-06T16:26:21.713Z,2.97
2022-09-06T16:28:50.349Z,3.10
2022-09-06T16:31:21.273Z,3.35
2022-09-06T16:33:49.615Z,3.17
2022-09-06T16:36:17.526Z,3.25
2022-09-06T16:38:44.728Z,3.00
2022-09-06T16:41:26.799Z,2.45
2022-09-06T16:43:56.443Z,2.50
2022-09-06T16:46:26.086Z,3.55
2022-09-06T16:48:54.873Z,2.47
2022-09-06T16:51:24.587Z,2.53
2022-09-06T16:53:52.164Z,2.40
2022-09-06T16:56:22.419Z,2.67
2022-09-06T16:58:57.583Z,2.80
2022-09-06T17:01:26.242Z,2.58
2022-09-06T17:03:53.121Z,2.65
2022-09-06T17:06:23.971Z,2.28
2022-09-06T17:08:51.053Z,2.65
2022-09-06T17:11:20.397Z,2.22
2022-09-06T17:13:49.824Z,2.58
2022-09-06T17:16:36.244Z,2.22
2022-09-06T17:19:04.125Z,2.63
2022-09-06T17:21:31.447Z,2.15
2022-09-06T17:24:03.143Z,2.03
2022-09-06T17:26:30.005Z,2.38
2022-09-06T17:28:57.080Z,2.72
2022-09-06T17:31:27.278Z,3.78
2022-09-06T17:33:53.811Z,2.30
2022-09-06T17:36:27.780Z,2.17
2022-09-06T17:39:00.276Z,2.17
2022-09-06T17:41:47.717Z,2.28
2022-09-06T17:44:17.929Z,2.22
2022-09-06T17:47:09.227Z,2.47
2022-09-06T17:49:37.690Z,1.85
2022-09-06T17:52:04.342Z,3.10
2022-09-06T17:54:31.818Z,3.20
2022-09-06T17:59:25.413Z,5.40
2022-09-06T18:01:52.369Z,3.95
2022-09-06T18:04:22.188Z,3.47
2022-09-06T18:06:51.963Z,3.97
2022-09-06T18:09:20.750Z,4.35
2022-09-06T18:11:47.352Z,3.88
2022-09-06T18:14:17.411Z,3.30
2022-09-06T18:16:47.219Z,3.80
2022-09-06T18:19:15.191Z,3.50
2022-09-06T18:21:42.025Z,3.63
2022-09-06T18:24:09.743Z,3.72
2022-09-06T18:26:37.402Z,3.88
2022-09-06T18:29:07.006Z,5.40
2022-09-06T18:31:34.113Z,4.38
2022-09-06T18:34:00.617Z,4.30
2022-09-06T18:36:32.030Z,3.50
2022-09-06T18:39:02.658Z,3.47
2022-09-06T18:42:05.101Z,3.20
2022-09-06T18:44:33.513Z,3.45
2022-09-06T18:47:01.948Z,3.17
2022-09-06T18:49:30.009Z,3.80
2022-09-06T18:51:56.690Z,3.60
2022-09-06T18:54:29.644Z,3.92
2022-09-06T18:56:56.425Z,2.95
2022-09-06T18:59:23.594Z,3.25
2022-09-06T19:01:50.372Z,3.53
2022-09-06T19:04:17.222Z,3.03
2022-09-06T19:06:44.502Z,3.35
2022-09-06T19:09:14.147Z,3.03
2022-09-06T19:11:42.668Z,3.38
2022-09-06T19:14:21.559Z,3.00
2022-09-06T19:16:50.507Z,3.40
2022-09-06T19:19:17.645Z,3.70
2022-09-06T19:21:44.209Z,3.13
2022-09-06T19:24:12.681Z,3.30
2022-09-06T19:26:44.083Z,3.55
2022-09-06T19:29:19.169Z,2.75
2022-09-06T19:31:47.447Z,3.33
2022-09-06T19:34:15.762Z,2.63
2022-09-06T19:36:43.211Z,2.60
2022-09-06T19:39:37.027Z,1.98
2022-09-06T19:42:05.832Z,2.13
2022-09-06T19:44:33.359Z,2.05
2022-09-06T19:47:00.243Z,2.42
2022-09-06T19:49:27.018Z,2.88
2022-09-06T19:51:56.867Z,1.77
2022-09-06T19:54:23.462Z,2.40
2022-09-06T19:56:53.177Z,2.30
2022-09-06T19:59:22.642Z,2.10
2022-09-06T20:01:49.755Z,2.10
2022-09-06T20:04:16.326Z,2.30
2022-09-06T20:06:43.102Z,1.92
2022-09-06T20:09:10.884Z,2.67
2022-09-06T20:11:39.145Z,1.88
2022-09-06T20:14:06.605Z,3.38
2022-09-06T20:16:34.056Z,3.47
2022-09-06T20:19:03.105Z,2.10
2022-09-06T20:21:29.908Z,2.33
2022-09-06T20:23:57.859Z,2.78
2022-09-06T20:26:26.184Z,2.78
2022-09-06T20:29:01.290Z,3.47
2022-09-06T20:31:29.847Z,3.38
2022-09-06T20:33:58.955Z,2.58
2022-09-06T20:36:26.011Z,3.42
2022-09-06T20:38:52.652Z,3.47
2022-09-06T20:41:21.493Z,4.53
2022-09-06T20:43:52.980Z,3.90
2022-09-06T20:46:37.288Z,4.60
2022-09-06T20:49:05.156Z,4.15
2022-09-06T20:51:32.933Z,5.00
2022-09-06T20:56:36.539Z,3.72
2022-09-06T20:59:09.465Z,3.40
2022-09-06T21:01:39.334Z,3.88
2022-09-06T21:04:07.494Z,5.07
2022-09-06T21:06:35.937Z,4.72
2022-09-06T21:09:08.305Z,5.32
2022-09-06T21:11:35.676Z,5.18
2022-09-06T21:14:02.832Z,5.57
2022-09-06T21:16:30.191Z,5.18
2022-09-06T21:19:01.681Z,5.00
2022-09-06T21:21:29.786Z,4.68
2022-09-06T21:23:56.700Z,5.25
2022-09-06T21:26:23.664Z,5.18
2022-09-06T21:28:50.453Z,6.22
2022-09-06T21:31:27.489Z,6.35
2022-09-06T21:33:58.142Z,6.72
2022-09-06T21:36:31.000Z,7.70
2022-09-06T21:38:59.812Z,8.18
2022-09-06T21:41:27.481Z,10.45
2022-09-06T21:46:23.359Z,9.52
2022-09-06T21:48:52.661Z,10.75
2022-09-06T21:51:34.555Z,10.52
2022-09-06T21:54:04.298Z,9.93
2022-09-06T21:56:33.872Z,8.32
2022-09-06T21:59:00.542Z,8.25
2022-09-06T22:01:29.821Z,8.10
2022-09-06T22:03:56.330Z,7.32
2022-09-06T22:06:28.736Z,6.57
2022-09-06T22:09:00.726Z,6.20
2022-09-06T22:11:32.273Z,4.47
2022-09-06T22:14:05.268Z,3.20
2022-09-06T22:16:34.074Z,3.03
2022-09-06T22:19:01.586Z,3.80
2022-09-06T22:21:28.206Z,3.38
2022-09-06T22:23:58.284Z,1.67
2022-09-06T22:26:29.806Z,1.15
2022-09-06T22:28:58.557Z,0.70
2022-09-06T22:31:29.073Z,1.45
2022-09-06T22:33:56.132Z,0.95
2022-09-06T22:36:23.865Z,1.75
2022-09-06T22:41:22.967Z,2.47
2022-09-06T22:43:52.804Z,2.65
2022-09-06T22:46:22.962Z,1.50
2022-09-06T22:48:49.906Z,2.38
2022-09-06T22:51:16.485Z,2.33
2022-09-06T22:53:43.747Z,2.10
2022-09-06T22:56:10.470Z,2.13
2022-09-06T22:58:37.062Z,3.97
2022-09-06T23:01:08.787Z,4.38
2022-09-06T23:03:35.608Z,3.53
2022-09-06T23:06:02.660Z,3.78
2022-09-06T23:08:29.763Z,4.00
2022-09-06T23:10:56.411Z,3.63
2022-09-06T23:13:23.284Z,3.17
2022-09-06T23:15:52.949Z,3.15
2022-09-06T23:18:22.598Z,2.55
2022-09-06T23:20:49.214Z,2.92
2022-09-06T23:23:15.715Z,3.05
2022-09-06T23:25:42.183Z,2.60
2022-09-06T23:28:08.616Z,2.05
2022-09-06T23:30:38.404Z,2.50
2022-09-06T23:33:08.578Z,2.08
2022-09-06T23:35:35.297Z,2.65
2022-09-06T23:38:01.826Z,2.97
2022-09-06T23:40:28.298Z,2.33
2022-09-06T23:42:54.790Z,2.00
2022-09-06T23:45:21.432Z,2.20
2022-09-06T23:47:47.929Z,6.35
2022-09-06T23:50:15.219Z,6.82
2022-09-06T23:52:41.769Z,2.85
2022-09-06T23:55:09.438Z,1.20
2022-09-06T23:57:36.226Z,1.27
